Time;durP1;ratioP1;P1;durP2;ratioP2;P2;SDS_P1;SDS_P2;PMS_P1;PMS_P2;Temp;Humidity;BMP_temperature;BMP_pressure;BME280_temperature;BME280_humidity;BME280_pressure;Samples;Min_cycle;Max_cycle;Signal;HPM_P1;HPM_P2
2023/07/23 00:01:15;;;;;;;10.88;5.00;;;;;;;15.42;93.21;100960.25;6093514;19;20470;-72
2023/07/23 00:03:20;;;;;;;14.10;4.97;;;;;;;15.43;92.47;100965.47;6098327;19;20023;-75
2023/07/23 00:05:23;;;;;;;12.50;5.72;;;;;;;15.46;93.29;100969.75;6101833;19;20715;-75
2023/07/23 00:07:29;;;;;;;12.10;6.13;;;;;;;15.43;93.91;100969.91;6099636;19;20082;-75
2023/07/23 00:09:32;;;;;;;11.70;5.57;;;;;;;15.43;93.32;100957.53;6100250;19;20561;-74
2023/07/23 00:11:39;;;;;;;10.52;5.13;;;;;;;15.45;93.59;100960.06;6095461;19;20075;-73
2023/07/23 00:13:47;;;;;;;13.90;5.95;;;;;;;15.46;93.23;100956.50;6099340;19;20018;-74
2023/07/23 00:15:52;;;;;;;13.20;6.05;;;;;;;15.42;93.18;100953.16;6096447;19;20313;-75
2023/07/23 00:17:56;;;;;;;13.80;5.80;;;;;;;15.41;92.77;100947.97;6090464;19;20030;-74
2023/07/23 00:20:04;;;;;;;12.50;5.35;;;;;;;15.49;92.54;100956.31;6098991;19;20138;-74
2023/07/23 00:22:09;;;;;;;11.85;5.32;;;;;;;15.45;93.18;100952.97;6098498;19;20343;-73
2023/07/23 00:24:14;;;;;;;10.27;4.95;;;;;;;15.40;94.09;100956.84;6100285;19;20019;-74
2023/07/23 00:26:19;;;;;;;12.30;5.53;;;;;;;15.36;93.48;100941.13;6104502;19;20011;-73
2023/07/23 00:28:27;;;;;;;12.73;6.03;;;;;;;15.41;94.55;100926.78;6096499;19;20105;-73
2023/07/23 00:30:34;;;;;;;12.57;5.80;;;;;;;15.40;94.01;100938.31;6102941;19;20396;-73
2023/07/23 00:32:41;;;;;;;14.13;5.75;;;;;;;15.43;94.61;100932.81;6104647;19;20121;-74
2023/07/23 00:34:44;;;;;;;11.90;5.65;;;;;;;15.36;93.42;100922.59;6104536;19;20260;-74
2023/07/23 00:36:50;;;;;;;12.88;5.30;;;;;;;15.43;94.44;100923.09;6103452;19;20029;-75
2023/07/23 00:38:55;;;;;;;12.48;5.93;;;;;;;15.40;95.12;100914.47;6104640;19;20038;-73
2023/07/23 00:41:01;;;;;;;14.48;7.28;;;;;;;15.37;94.13;100915.50;6100071;19;20085;-72
2023/07/23 00:43:06;;;;;;;14.52;6.57;;;;;;;15.44;94.19;100918.66;6104527;19;20142;-74
2023/07/23 00:45:14;;;;;;;13.52;6.15;;;;;;;15.42;93.57;100910.78;6103251;19;20030;-74
2023/07/23 00:47:20;;;;;;;13.23;6.07;;;;;;;15.43;94.02;100917.81;6102614;19;20007;-73
2023/07/23 00:49:25;;;;;;;13.75;6.22;;;;;;;15.46;94.20;100919.44;6101203;19;20018;-73
2023/07/23 00:51:35;;;;;;;14.93;6.60;;;;;;;15.46;94.20;100912.31;6099613;19;20011;-73
2023/07/23 00:53:40;;;;;;;13.13;6.55;;;;;;;15.44;94.43;100905.41;6092380;19;20389;-74
2023/07/23 00:55:43;;;;;;;13.35;6.53;;;;;;;15.50;94.01;100905.03;6098363;19;20041;-75
2023/07/23 00:57:50;;;;;;;15.23;6.90;;;;;;;15.51;94.43;100899.66;6101599;19;20015;-73
2023/07/23 00:59:59;;;;;;;13.93;6.07;;;;;;;15.49;95.11;100890.09;6096478;19;20415;-72
2023/07/23 01:02:07;;;;;;;15.60;6.95;;;;;;;15.46;95.00;100890.28;6100275;19;20094;-73
2023/07/23 01:04:12;;;;;;;13.18;6.70;;;;;;;15.41;95.36;100892.38;6099691;19;20014;-74
2023/07/23 01:06:19;;;;;;;15.13;6.38;;;;;;;15.41;95.31;100879.97;6101087;19;20496;-74
2023/07/23 01:08:25;;;;;;;12.88;7.03;;;;;;;15.45;95.41;100875.31;6097962;19;20055;-73
2023/07/23 01:10:32;;;;;;;17.45;6.80;;;;;;;15.45;96.01;100883.28;6099669;19;20030;-73
2023/07/23 01:12:40;;;;;;;14.07;6.05;;;;;;;15.43;96.26;100877.22;6101463;19;20038;-74
2023/07/23 01:14:48;;;;;;;15.07;6.55;;;;;;;15.45;96.23;100880.63;6097843;19;20093;-74
2023/07/23 01:16:54;;;;;;;16.52;6.40;;;;;;;15.45;96.43;100872.69;6102505;19;20002;-75
2023/07/23 01:19:03;;;;;;;13.32;6.50;;;;;;;15.49;95.96;100863.63;6097713;19;20019;-74
2023/07/23 01:21:10;;;;;;;15.25;6.78;;;;;;;15.45;95.71;100867.38;6099654;19;20006;-73
2023/07/23 01:23:18;;;;;;;13.45;5.80;;;;;;;15.43;96.07;100858.66;6085823;19;20007;-73
2023/07/23 01:25:23;;;;;;;13.98;6.15;;;;;;;15.43;96.53;100854.25;6104607;19;20013;-72
2023/07/23 01:27:28;;;;;;;12.00;6.00;;;;;;;15.45;96.37;100856.78;6092941;19;20014;-73
2023/07/23 01:29:33;;;;;;;11.35;5.93;;;;;;;15.43;97.42;100854.25;6097458;19;20002;-72
2023/07/23 01:31:39;;;;;;;14.07;7.13;;;;;;;15.39;97.24;100847.44;6077451;19;20040;-72
2023/07/23 01:33:44;;;;;;;11.75;6.32;;;;;;;15.41;97.49;100842.91;6100144;19;20018;-74
2023/07/23 01:35:50;;;;;;;12.68;6.03;;;;;;;15.40;96.60;100838.53;6092311;19;20020;-74
2023/07/23 01:37:55;;;;;;;13.10;6.25;;;;;;;15.40;97.78;100837.69;6100969;19;20045;-75
2023/07/23 01:40:03;;;;;;;17.48;6.82;;;;;;;15.41;96.48;100828.81;6100358;19;20014;-74
2023/07/23 01:42:10;;;;;;;14.75;6.05;;;;;;;15.41;96.66;100824.34;6104123;19;20373;-75
2023/07/23 01:44:15;;;;;;;11.50;5.70;;;;;;;15.45;97.41;100825.00;6099133;19;20018;-72
2023/07/23 01:46:20;;;;;;;14.15;5.90;;;;;;;15.48;97.11;100816.88;6100783;19;20369;-74
2023/07/23 01:48:25;;;;;;;14.68;6.25;;;;;;;15.42;96.98;100815.47;6101988;19;20010;-75
2023/07/23 01:50:31;;;;;;;12.32;5.68;;;;;;;15.47;96.88;100815.19;6100209;19;20563;-75
2023/07/23 01:52:36;;;;;;;12.77;6.60;;;;;;;15.43;96.94;100808.34;6090654;19;20025;-74
2023/07/23 01:54:41;;;;;;;12.73;5.25;;;;;;;15.45;98.60;100812.63;6100725;19;20010;-73
2023/07/23 01:56:49;;;;;;;13.18;5.63;;;;;;;15.45;97.32;100812.63;6102774;19;20016;-73
2023/07/23 01:58:54;;;;;;;12.60;5.60;;;;;;;15.49;96.66;100808.00;6103424;19;20474;-73
2023/07/23 02:01:04;;;;;;;11.70;4.93;;;;;;;15.48;96.93;100807.16;6101277;19;20826;-73
2023/07/23 02:03:07;;;;;;;12.02;6.00;;;;;;;15.47;97.21;100812.53;6103150;19;20002;-72
2023/07/23 02:05:13;;;;;;;;;;;;;;;15.45;96.82;100798.53;6104407;19;20010;-73
2023/07/23 02:07:18;;;;;;;11.15;5.07;;;;;;;15.44;96.83;100802.97;6095905;19;19942;-75
2023/07/23 02:09:23;;;;;;;15.38;6.35;;;;;;;15.46;97.21;100800.25;6099550;19;20007;-72
2023/07/23 02:11:28;;;;;;;11.52;5.15;;;;;;;15.38;97.96;100803.38;6099054;19;20011;-73
2023/07/23 02:13:36;;;;;;;13.15;6.35;;;;;;;15.40;98.17;100803.25;6100976;19;20010;-73
2023/07/23 02:15:41;;;;;;;13.52;6.10;;;;;;;15.36;96.75;100792.84;6093237;19;19999;-72
2023/07/23 02:17:46;;;;;;;13.88;6.22;;;;;;;15.40;97.14;100788.22;6103583;19;20010;-73
2023/07/23 02:19:51;;;;;;;13.35;6.18;;;;;;;15.35;97.60;100777.94;6097284;19;19998;-73
2023/07/23 02:21:56;;;;;;;10.45;5.43;;;;;;;15.41;98.45;100774.03;6097428;19;20494;-73
2023/07/23 02:24:02;;;;;;;15.15;6.18;;;;;;;15.38;97.66;100771.59;6097698;19;20485;-73
2023/07/23 02:26:10;;;;;;;14.82;6.05;;;;;;;15.40;98.14;100763.53;6096861;19;20035;-73
2023/07/23 02:28:15;;;;;;;12.90;5.45;;;;;;;15.40;98.25;100767.03;6102744;19;20021;-73
2023/07/23 02:30:23;;;;;;;12.32;6.75;;;;;;;15.42;98.50;100767.78;6102889;19;20335;-73
2023/07/23 02:32:29;;;;;;;12.07;5.95;;;;;;;15.40;98.93;100766.19;6101558;19;20006;-73
2023/07/23 02:34:39;;;;;;;12.85;6.00;;;;;;;15.43;98.11;100747.44;6103593;19;20027;-74
2023/07/23 02:36:43;;;;;;;16.52;6.20;;;;;;;15.41;98.34;100758.16;6106233;19;20082;-73
2023/07/23 02:38:48;;;;;;;11.68;6.40;;;;;;;15.39;99.02;100754.75;6103617;19;20070;-73
2023/07/23 02:40:57;;;;;;;12.23;6.05;;;;;;;15.37;98.28;100746.88;6104330;19;20010;-76
2023/07/23 02:43:03;;;;;;;11.60;5.53;;;;;;;15.33;97.87;100740.09;6106070;19;20006;-74
2023/07/23 02:45:10;;;;;;;15.10;6.15;;;;;;;15.34;98.74;100740.94;6102248;19;20010;-75
2023/07/23 02:47:18;;;;;;;13.75;6.00;;;;;;;15.36;98.20;100731.97;6102545;19;20003;-73
2023/07/23 02:49:23;;;;;;;10.45;5.15;;;;;;;15.40;98.87;100718.53;6099339;19;20006;-74
2023/07/23 02:51:28;;;;;;;14.48;5.82;;;;;;;15.45;98.29;100721.72;6099879;19;20020;-74
2023/07/23 02:53:35;;;;;;;10.93;5.30;;;;;;;15.42;98.97;100719.28;6099646;19;20511;-74
2023/07/23 02:55:41;;;;;;;13.07;5.43;;;;;;;15.38;98.18;100723.94;6097274;19;20036;-74
2023/07/23 02:57:46;;;;;;;10.65;5.35;;;;;;;15.39;98.07;100714.19;6097078;19;20021;-75
2023/07/23 02:59:51;;;;;;;12.63;5.40;;;;;;;15.40;98.34;100715.88;6097094;19;20110;-73
2023/07/23 03:01:56;;;;;;;11.75;5.43;;;;;;;15.35;98.35;100708.25;6099992;19;20543;-73
2023/07/23 03:04:07;;;;;;;13.30;5.70;;;;;;;15.38;99.06;100710.69;6098545;19;20348;-72
2023/07/23 03:06:13;;;;;;;14.55;6.53;;;;;;;15.37;98.07;100709.81;6095534;19;20010;-72
2023/07/23 03:08:19;;;;;;;13.30;5.93;;;;;;;15.44;97.35;100697.06;6099902;19;20451;-73
2023/07/23 03:10:26;;;;;;;11.10;5.68;;;;;;;15.48;97.16;100703.00;6101878;19;20010;-75
2023/07/23 03:12:28;;;;;;;13.18;5.80;;;;;;;15.40;97.83;100694.69;6091329;19;20010;-74
2023/07/23 03:14:33;;;;;;;12.70;5.90;;;;;;;15.36;97.66;100697.53;6095284;19;20021;-74
2023/07/23 03:16:50;;;;;;;10.35;5.38;;;;;;;15.41;97.71;100696.41;6084902;19;20021;-75
2023/07/23 03:18:56;;;;;;;11.70;5.50;;;;;;;15.36;97.00;100689.59;6095532;19;20018;-74
2023/07/23 03:21:07;;;;;;;12.30;6.40;;;;;;;15.43;97.35;100689.19;6098156;19;20014;-73
2023/07/23 03:23:12;;;;;;;12.93;5.32;;;;;;;15.45;96.82;100682.84;6101032;19;20063;-73
2023/07/23 03:25:17;;;;;;;14.63;5.97;;;;;;;15.46;97.20;100678.44;6099525;19;20347;-72
2023/07/23 03:27:22;;;;;;;13.52;6.38;;;;;;;15.41;96.55;100680.53;6100479;19;20007;-72
2023/07/23 03:29:28;;;;;;;11.38;5.28;;;;;;;15.45;97.10;100676.72;6099358;19;20492;-72
2023/07/23 03:31:34;;;;;;;12.18;5.55;;;;;;;15.47;96.10;100669.53;6096838;19;20034;-75
2023/07/23 03:33:39;;;;;;;13.07;6.15;;;;;;;15.45;96.40;100669.63;6085338;19;20023;-73
2023/07/23 03:35:43;;;;;;;10.65;5.43;;;;;;;15.44;95.67;100659.97;6097604;19;20010;-74
2023/07/23 03:37:52;;;;;;;14.82;5.63;;;;;;;15.49;95.58;100675.59;6095563;19;20007;-75
2023/07/23 03:39:55;;;;;;;13.32;5.78;;;;;;;15.45;95.00;100658.19;6098886;19;20025;-73
2023/07/23 03:42:02;;;;;;;18.33;6.35;;;;;;;15.45;95.67;100652.88;6096411;19;20375;-73
2023/07/23 03:44:07;;;;;;;14.05;6.43;;;;;;;15.52;95.06;100656.84;6100491;19;20034;-74
2023/07/23 03:46:12;;;;;;;11.75;5.25;;;;;;;15.55;94.25;100652.19;6094757;19;20010;-72
2023/07/23 03:48:17;;;;;;;16.38;5.88;;;;;;;15.66;93.15;100653.31;6095874;19;20443;-74
2023/07/23 03:50:22;;;;;;;13.48;5.75;;;;;;;15.65;92.58;100655.09;6096478;19;20010;-74
2023/07/23 03:52:28;;;;;;;12.63;5.25;;;;;;;15.68;92.08;100651.41;6095951;19;20110;-73
2023/07/23 03:54:39;;;;;;;12.57;6.10;;;;;;;15.68;92.76;100657.56;6096178;19;20670;-73
2023/07/23 03:56:44;;;;;;;11.50;6.03;;;;;;;15.76;92.14;100654.44;6097568;19;20070;-72
2023/07/23 03:58:49;;;;;;;11.70;5.25;;;;;;;15.77;92.04;100651.72;6104233;19;20017;-73
2023/07/23 04:00:54;;;;;;;13.07;5.18;;;;;;;15.75;92.24;100653.59;6102051;19;20042;-73
2023/07/23 04:03:04;;;;;;;9.75;5.00;;;;;;;15.75;92.23;100647.47;6103323;19;20014;-72
2023/07/23 04:05:09;;;;;;;10.68;5.53;;;;;;;15.77;92.60;100641.09;6104668;19;20009;-72
2023/07/23 04:07:14;;;;;;;13.98;5.57;;;;;;;15.74;93.37;100640.44;6102667;19;20511;-73
2023/07/23 04:09:23;;;;;;;13.30;5.55;;;;;;;15.73;92.96;100644.91;6103945;19;20044;-73
2023/07/23 04:11:31;;;;;;;12.13;5.03;;;;;;;15.77;93.25;100645.53;6104377;19;20058;-73
2023/07/23 04:13:33;;;;;;;12.63;5.90;;;;;;;15.80;92.56;100632.09;6104968;19;20026;-72
2023/07/23 04:15:39;;;;;;;14.85;6.50;;;;;;;15.81;92.16;100636.44;6091482;19;20746;-73
2023/07/23 04:17:45;;;;;;;12.45;5.93;;;;;;;15.85;92.33;100635.31;6101874;19;20034;-74
2023/07/23 04:19:48;;;;;;;13.45;5.28;;;;;;;15.86;92.34;100638.81;6103110;19;20027;-73
2023/07/23 04:21:56;;;;;;;10.90;5.25;;;;;;;15.91;92.27;100632.25;6103233;19;20078;-73
2023/07/23 04:24:03;;;;;;;11.68;4.85;;;;;;;15.88;92.80;100637.75;6103903;19;20082;-73
2023/07/23 04:26:11;;;;;;;12.50;5.93;;;;;;;15.91;92.08;100629.59;6105152;19;20084;-73
2023/07/23 04:28:19;;;;;;;11.68;5.40;;;;;;;15.96;91.58;100637.25;6106797;19;20042;-73
2023/07/23 04:30:23;;;;;;;16.50;5.78;;;;;;;15.98;91.09;100644.16;6109018;19;20010;-73
2023/07/23 04:32:31;;;;;;;14.57;5.93;;;;;;;16.05;90.81;100633.97;6106052;19;20136;-73
2023/07/23 04:34:36;;;;;;;16.15;5.85;;;;;;;16.04;90.89;100632.28;6099856;19;20010;-73
2023/07/23 04:36:41;;;;;;;12.35;5.75;;;;;;;16.06;90.58;100625.09;6105374;19;20023;-73
2023/07/23 04:38:47;;;;;;;15.15;6.82;;;;;;;16.10;90.42;100621.25;6105636;19;20035;-75
2023/07/23 04:40:52;;;;;;;12.50;6.07;;;;;;;16.13;90.78;100630.81;6102156;19;20442;-74
2023/07/23 04:42:58;;;;;;;15.98;6.20;;;;;;;16.10;90.08;100631.88;6106006;19;20014;-74
2023/07/23 04:45:08;;;;;;;18.25;7.07;;;;;;;16.13;90.03;100623.69;6105233;19;20308;-73
2023/07/23 04:47:13;;;;;;;12.13;6.38;;;;;;;16.14;90.28;100628.06;6106600;19;20013;-73
2023/07/23 04:49:19;;;;;;;15.23;7.10;;;;;;;16.12;90.98;100631.78;6105288;19;20018;-73
2023/07/23 04:51:26;;;;;;;13.38;5.97;;;;;;;16.11;91.34;100627.41;6103615;19;20014;-73
2023/07/23 04:53:33;;;;;;;13.93;5.60;;;;;;;16.03;90.69;100625.25;6095458;19;20052;-73
2023/07/23 04:55:40;;;;;;;16.35;6.22;;;;;;;16.02;91.19;100628.88;6098230;19;20002;-73
2023/07/23 04:57:46;;;;;;;13.18;6.03;;;;;;;15.98;91.43;100625.59;6096976;19;20039;-73
2023/07/23 04:59:51;;;;;;;15.05;5.53;;;;;;;16.04;90.34;100631.44;6100612;19;20089;-74
2023/07/23 05:01:59;;;;;;;11.55;5.00;;;;;;;15.98;91.79;100632.66;6103731;19;21335;-75
2023/07/23 05:04:04;;;;;;;14.77;5.50;;;;;;;15.97;91.18;100630.97;6100903;19;20572;-72
2023/07/23 05:06:09;;;;;;;12.60;5.70;;;;;;;15.98;92.02;100627.38;6104649;19;20043;-73
2023/07/23 05:08:14;;;;;;;14.00;6.53;;;;;;;15.89;91.85;100636.78;6098087;19;20011;-73
2023/07/23 05:10:20;;;;;;;18.17;6.20;;;;;;;15.91;92.04;100636.69;6100093;19;20534;-73
2023/07/23 05:12:29;;;;;;;13.32;5.53;;;;;;;15.88;92.25;100648.34;6100645;19;20641;-75
2023/07/23 05:14:35;;;;;;;13.30;5.43;;;;;;;15.82;92.62;100647.88;6095787;19;20689;-74
2023/07/23 05:16:40;;;;;;;11.82;4.93;;;;;;;15.76;93.29;100650.00;6100295;19;19999;-73
2023/07/23 05:18:50;;;;;;;13.27;5.15;;;;;;;15.67;93.27;100644.44;6101690;19;20014;-74
2023/07/23 05:20:56;;;;;;;13.00;5.72;;;;;;;15.59;93.59;100644.91;6103817;19;20479;-75
2023/07/23 05:23:04;;;;;;;13.23;5.95;;;;;;;15.59;93.78;100647.56;6102948;19;20007;-74
2023/07/23 05:25:11;;;;;;;13.63;5.57;;;;;;;15.63;94.52;100642.91;6104590;19;20014;-74
2023/07/23 05:27:16;;;;;;;14.10;6.25;;;;;;;15.50;95.09;100641.03;6105179;19;20618;-74
2023/07/23 05:29:21;;;;;;;14.45;5.90;;;;;;;15.47;96.72;100646.53;6101507;19;20400;-75
2023/07/23 05:31:26;;;;;;;16.60;6.25;;;;;;;15.46;97.21;100647.50;6094436;19;20464;-74
2023/07/23 05:33:32;;;;;;;14.10;6.15;;;;;;;15.39;98.22;100662.06;6104850;19;20002;-73
2023/07/23 05:35:43;;;;;;;15.93;6.88;;;;;;;15.31;98.16;100640.53;6096227;19;20035;-74
2023/07/23 05:37:45;;;;;;;14.48;6.32;;;;;;;15.22;98.98;100646.38;6104675;19;20014;-73
2023/07/23 05:39:52;;;;;;;15.40;6.40;;;;;;;15.30;98.76;100638.84;6103058;19;20006;-75
2023/07/23 05:41:57;;;;;;;14.55;5.97;;;;;;;15.18;99.63;100640.44;6103858;19;20042;-74
2023/07/23 05:44:06;;;;;;;14.65;6.03;;;;;;;15.12;99.35;100644.34;6103597;19;20042;-74
2023/07/23 05:46:11;;;;;;;12.68;6.00;;;;;;;15.06;99.76;100643.84;6103411;19;20029;-74
2023/07/23 05:48:16;;;;;;;14.57;6.25;;;;;;;15.13;100.00;100645.19;6098216;19;20570;-76
2023/07/23 05:50:21;;;;;;;14.70;5.93;;;;;;;15.12;99.52;100636.41;6097819;19;20034;-75
2023/07/23 05:52:29;;;;;;;17.05;5.35;;;;;;;15.16;99.16;100631.75;6098871;19;20018;-74
2023/07/23 05:54:34;;;;;;;11.70;5.55;;;;;;;15.14;99.53;100628.38;6097383;19;20035;-74
2023/07/23 05:56:40;;;;;;;14.20;5.90;;;;;;;15.20;99.19;100635.91;6100638;19;20011;-74
2023/07/23 05:58:47;;;;;;;11.82;6.20;;;;;;;15.11;99.32;100631.19;6100310;19;20917;-77
2023/07/23 06:00:52;;;;;;;19.45;6.18;;;;;;;15.10;99.43;100640.94;6100057;19;20021;-76
2023/07/23 06:02:59;;;;;;;13.38;5.35;;;;;;;15.13;99.71;100642.53;6097970;19;20333;-73
2023/07/23 06:05:05;;;;;;;13.52;5.70;;;;;;;15.14;99.91;100636.31;6101407;19;20317;-73
2023/07/23 06:07:11;;;;;;;14.95;5.45;;;;;;;15.14;99.72;100633.66;6103076;19;20002;-73
2023/07/23 06:09:19;;;;;;;13.82;6.05;;;;;;;15.12;100.00;100636.41;6097782;19;20019;-74
2023/07/23 06:11:24;;;;;;;18.63;6.65;;;;;;;15.12;100.00;100632.91;6096514;19;20021;-73
2023/07/23 06:13:32;;;;;;;14.38;5.82;;;;;;;15.19;100.00;100626.25;6100899;19;20757;-75
2023/07/23 06:15:39;;;;;;;12.23;5.20;;;;;;;15.15;99.99;100632.72;6093160;19;20082;-75
2023/07/23 06:17:44;;;;;;;13.05;5.30;;;;;;;15.15;100.00;100638.00;6099340;19;20052;-73
2023/07/23 06:19:49;;;;;;;16.48;6.30;;;;;;;15.22;99.74;100627.84;6101709;19;20038;-73
2023/07/23 06:21:54;;;;;;;12.25;5.18;;;;;;;15.24;99.34;100632.13;6101297;19;20010;-73
2023/07/23 06:24:01;;;;;;;14.82;5.65;;;;;;;15.18;98.74;100629.88;6099762;19;20003;-73
2023/07/23 06:26:10;;;;;;;15.80;6.32;;;;;;;15.21;99.80;100634.97;6094327;19;20018;-73
2023/07/23 06:28:15;;;;;;;13.73;6.30;;;;;;;15.30;100.00;100621.16;6100837;19;20070;-72
2023/07/23 06:30:20;;;;;;;16.10;6.15;;;;;;;15.32;99.87;100623.69;6101660;19;20010;-72
2023/07/23 06:32:23;;;;;;;18.35;5.57;;;;;;;15.37;99.20;100621.59;6102981;19;20010;-73
2023/07/23 06:34:28;;;;;;;;;;;;;;;15.40;100.00;100629.34;6096868;19;20019;-72
2023/07/23 06:36:36;;;;;;;17.45;5.95;;;;;;;15.27;99.51;100617.84;6103709;19;19918;-72
2023/07/23 06:38:41;;;;;;;11.88;5.47;;;;;;;15.29;100.00;100619.44;6103308;19;20011;-71
2023/07/23 06:40:47;;;;;;;13.52;5.95;;;;;;;15.35;99.94;100623.53;6104055;19;20430;-72
2023/07/23 06:42:55;;;;;;;17.25;7.55;;;;;;;15.34;100.00;100627.09;6101583;19;20373;-73
2023/07/23 06:44:59;;;;;;;18.02;5.15;;;;;;;15.33;99.71;100625.41;6093369;19;20024;-72
2023/07/23 06:47:05;;;;;;;15.43;6.50;;;;;;;15.25;100.00;100623.25;6099992;19;20011;-73
2023/07/23 06:49:13;;;;;;;17.65;6.32;;;;;;;15.26;99.86;100622.28;6098037;19;20025;-73
2023/07/23 06:51:21;;;;;;;13.90;6.43;;;;;;;15.28;99.37;100627.50;6099897;19;20018;-73
2023/07/23 06:53:26;;;;;;;21.55;6.70;;;;;;;15.35;99.04;100624.34;6098306;19;20017;-73
2023/07/23 06:55:31;;;;;;;16.65;5.75;;;;;;;15.43;100.00;100626.53;6097029;19;20117;-74
2023/07/23 06:57:39;;;;;;;15.30;5.30;;;;;;;15.46;97.96;100633.41;6094730;19;20431;-72
2023/07/23 06:59:48;;;;;;;13.30;5.95;;;;;;;15.52;98.30;100627.72;6095584;19;20043;-74
2023/07/23 07:01:53;;;;;;;12.95;6.18;;;;;;;15.53;98.70;100621.47;6096503;19;20051;-75
2023/07/23 07:03:58;;;;;;;13.45;5.68;;;;;;;15.53;98.18;100626.75;6100815;19;20395;-75
2023/07/23 07:06:04;;;;;;;16.08;5.72;;;;;;;15.57;98.08;100633.56;6102677;19;20427;-73
2023/07/23 07:08:09;;;;;;;15.43;6.25;;;;;;;15.54;97.46;100631.13;6103084;19;20417;-73
2023/07/23 07:10:14;;;;;;;12.40;5.30;;;;;;;15.59;97.43;100621.94;6098350;19;20010;-75
2023/07/23 07:12:19;;;;;;;13.38;6.28;;;;;;;15.61;97.65;100631.56;6100283;19;20010;-73
2023/07/23 07:14:24;;;;;;;15.48;5.95;;;;;;;15.66;96.62;100621.50;6092580;19;20110;-73
2023/07/23 07:16:32;;;;;;;11.20;4.90;;;;;;;15.66;95.96;100626.81;6094843;19;20486;-75
2023/07/23 07:18:37;;;;;;;12.55;4.95;;;;;;;15.68;95.75;100630.22;6099327;19;20034;-75
2023/07/23 07:20:45;;;;;;;17.50;5.80;;;;;;;15.77;96.83;100616.38;6086997;19;20014;-72
2023/07/23 07:22:50;;;;;;;14.30;5.47;;;;;;;15.78;94.81;100629.56;6096651;19;20463;-73
2023/07/23 07:24:55;;;;;;;14.80;6.00;;;;;;;15.82;95.28;100616.09;6095242;19;20010;-74
2023/07/23 07:27:01;;;;;;;15.55;5.43;;;;;;;15.88;94.00;100615.72;6090104;19;20006;-73
2023/07/23 07:29:06;;;;;;;11.82;5.03;;;;;;;15.96;94.80;100618.69;6094906;19;20086;-75
2023/07/23 07:31:12;;;;;;;15.02;5.32;;;;;;;16.11;94.55;100607.03;6096484;19;20002;-75
2023/07/23 07:33:19;;;;;;;15.25;5.53;;;;;;;16.07;93.90;100613.53;6098175;19;20002;-73
2023/07/23 07:35:25;;;;;;;12.77;5.20;;;;;;;16.06;92.67;100606.53;6093927;19;20440;-73
2023/07/23 07:37:33;;;;;;;13.75;4.88;;;;;;;16.09;92.02;100605.44;6095383;19;20072;-73
2023/07/23 07:39:41;;;;;;;15.07;5.10;;;;;;;16.16;93.05;100599.63;6088121;19;20387;-73
2023/07/23 07:41:46;;;;;;;11.77;5.90;;;;;;;16.23;94.12;100600.91;6093600;19;20051;-73
2023/07/23 07:43:52;;;;;;;10.65;4.53;;;;;;;16.19;92.37;100598.56;6094652;19;20006;-73
2023/07/23 07:45:59;;;;;;;12.88;5.88;;;;;;;16.26;92.52;100597.22;6098650;19;20447;-73
2023/07/23 07:48:08;;;;;;;10.70;4.75;;;;;;;16.24;92.35;100596.47;6090135;19;20017;-73
2023/07/23 07:50:15;;;;;;;14.55;5.13;;;;;;;16.26;91.59;100605.16;6089875;19;20015;-75
2023/07/23 07:52:21;;;;;;;11.52;4.63;;;;;;;16.38;92.29;100606.16;6091482;19;20014;-74
2023/07/23 07:54:26;;;;;;;9.60;4.25;;;;;;;16.33;92.26;100601.16;6093533;19;20003;-74
2023/07/23 07:56:34;;;;;;;11.82;4.97;;;;;;;16.32;92.37;100603.91;6097150;19;20013;-74
2023/07/23 07:58:40;;;;;;;12.00;5.53;;;;;;;16.38;91.89;100603.50;6098578;19;20572;-74
2023/07/23 08:00:48;;;;;;;12.15;5.00;;;;;;;16.28;92.08;100607.72;6100136;19;20024;-74
2023/07/23 08:02:54;;;;;;;13.18;5.32;;;;;;;16.24;91.66;100599.97;6097244;19;20470;-74
2023/07/23 08:04:58;;;;;;;11.80;4.85;;;;;;;16.35;92.04;100611.63;6088953;19;20011;-73
2023/07/23 08:07:08;;;;;;;11.07;5.05;;;;;;;16.35;91.97;100604.56;6093815;19;20011;-74
2023/07/23 08:09:15;;;;;;;10.23;4.45;;;;;;;16.41;92.49;100606.78;6095276;19;20013;-73
2023/07/23 08:11:21;;;;;;;10.38;4.72;;;;;;;16.35;92.44;100601.03;6092307;19;20365;-73
2023/07/23 08:13:27;;;;;;;12.52;5.32;;;;;;;16.38;92.34;100603.50;6097174;19;20015;-73
2023/07/23 08:15:36;;;;;;;12.75;5.28;;;;;;;16.46;92.27;100609.97;6094175;19;20365;-73
2023/07/23 08:17:42;;;;;;;13.07;5.97;;;;;;;16.45;91.98;100600.28;6091871;19;20048;-73
2023/07/23 08:19:48;;;;;;;12.43;4.82;;;;;;;16.53;92.25;100610.38;6095633;19;20014;-74
2023/07/23 08:21:54;;;;;;;12.25;4.72;;;;;;;16.52;91.66;100611.34;6095946;19;20434;-74
2023/07/23 08:24:02;;;;;;;11.43;5.45;;;;;;;16.50;92.04;100602.63;6087012;19;20010;-74
2023/07/23 08:26:09;;;;;;;14.48;5.22;;;;;;;16.48;91.92;100601.88;6099178;19;20400;-74
2023/07/23 08:28:17;;;;;;;10.73;5.40;;;;;;;16.48;92.47;100604.53;6099799;19;20350;-74
2023/07/23 08:30:24;;;;;;;13.30;4.45;;;;;;;16.51;92.70;100612.31;6100632;19;20725;-73
2023/07/23 08:32:33;;;;;;;12.23;4.97;;;;;;;16.50;92.45;100607.09;6101132;19;20028;-75
2023/07/23 08:34:40;;;;;;;12.70;5.43;;;;;;;16.55;92.42;100608.47;6101265;19;20003;-75
2023/07/23 08:36:46;;;;;;;12.73;5.47;;;;;;;16.59;92.64;100607.31;6100954;19;20014;-73
2023/07/23 08:38:53;;;;;;;13.68;5.60;;;;;;;16.63;93.15;100595.53;6098102;19;20474;-73
2023/07/23 08:41:03;;;;;;;12.38;5.50;;;;;;;16.60;92.49;100602.84;6092660;19;20011;-74
2023/07/23 08:43:43;;;;;;;10.55;5.63;;;;;;;16.67;92.92;100614.75;6086759;19;20361;-72
2023/07/23 08:46:21;;;;;;;12.52;5.70;;;;;;;16.80;92.94;100606.81;6096870;19;20010;-73
2023/07/23 08:48:43;;;;;;;11.15;5.88;;;;;;;16.77;92.57;100609.63;6105848;19;20118;-73
2023/07/23 08:50:49;;;;;;;11.38;6.85;;;;;;;16.71;92.15;100600.28;6104634;19;20359;-73
2023/07/23 08:52:56;;;;;;;13.32;6.20;;;;;;;16.70;92.15;100603.06;6099296;19;20511;-72
2023/07/23 08:55:05;;;;;;;10.88;6.50;;;;;;;16.70;92.29;100605.72;6103362;19;20013;-73
2023/07/23 08:57:18;;;;;;;14.20;6.40;;;;;;;16.77;92.49;100604.31;6102560;19;20006;-74
2023/07/23 08:59:25;;;;;;;11.15;6.35;;;;;;;16.79;92.58;100607.75;6100996;19;20538;-74
2023/07/23 09:01:34;;;;;;;14.10;6.53;;;;;;;16.82;92.10;100604.88;6097835;19;20423;-73
2023/07/23 09:03:40;;;;;;;15.02;7.43;;;;;;;16.84;92.69;100600.31;6098523;19;20323;-73
2023/07/23 09:05:45;;;;;;;12.00;5.65;;;;;;;16.95;92.50;100597.75;6102526;19;20003;-73
2023/07/23 09:07:51;;;;;;;11.23;6.03;;;;;;;16.92;92.63;100602.44;6103768;19;20021;-73
2023/07/23 09:09:58;;;;;;;12.10;6.80;;;;;;;16.85;92.66;100607.31;6103998;19;20034;-72
2023/07/23 09:12:03;;;;;;;14.75;6.80;;;;;;;16.79;93.92;100613.91;6094377;19;20009;-74
2023/07/23 09:14:13;;;;;;;11.13;6.38;;;;;;;16.70;95.28;100614.53;6096210;19;20007;-73
2023/07/23 09:16:23;;;;;;;12.63;6.47;;;;;;;16.67;96.03;100612.94;6094409;19;20459;-75
2023/07/23 09:18:28;;;;;;;13.75;6.78;;;;;;;16.67;96.89;100618.25;6089677;19;20013;-73
2023/07/23 09:20:34;;;;;;;11.10;6.57;;;;;;;16.66;97.79;100616.53;6099173;19;20033;-74
2023/07/23 09:22:39;;;;;;;12.85;6.72;;;;;;;16.70;98.69;100619.00;6101245;19;20003;-73
2023/07/23 09:24:46;;;;;;;12.43;6.35;;;;;;;16.62;98.51;100620.34;6096951;19;20011;-73
2023/07/23 09:26:52;;;;;;;15.30;6.57;;;;;;;16.59;98.54;100617.94;6097598;19;20002;-73
2023/07/23 09:29:03;;;;;;;9.95;5.65;;;;;;;16.48;99.92;100631.06;6099360;19;20005;-72
2023/07/23 09:31:10;;;;;;;12.55;6.60;;;;;;;16.45;100.00;100631.28;6101491;19;20018;-73
2023/07/23 09:33:15;;;;;;;13.10;5.93;;;;;;;16.42;100.00;100634.13;6100955;19;20018;-72
2023/07/23 09:35:20;;;;;;;15.05;7.18;;;;;;;16.37;100.00;100634.44;6097308;19;20400;-73
2023/07/23 09:37:25;;;;;;;12.13;6.80;;;;;;;16.32;100.00;100633.06;6091181;19;20344;-72
2023/07/23 09:39:38;;;;;;;10.85;6.65;;;;;;;16.34;100.00;100644.41;6098836;19;20003;-72
2023/07/23 09:41:46;;;;;;;12.95;6.63;;;;;;;16.34;100.00;100636.47;6090148;19;20010;-72